Terminal Aerodrome Forecast
Issued by NWS Tampa Bay Area, FL

Home | Current Version | Previous Version | Text Only | Print | Product List | Glossary On
Versions: 1 2 3 4 5 6 7 8 9 10 11 12 13 14 15
000
FTUS42 KTBW 180941 AAA
TAFSRQ
TAF AMD
KSRQ 180941Z 1810/1906 VRB04KT 5SM BR FEW015 SCT250
      TEMPO 1810/1812 2SM BR
     FM181500 24008KT P6SM SCT050 BKN250
     FM182000 27009KT P6SM VCTS SCT025CB BKN050
     FM190000 VRB05KT P6SM SCT030 BKN100=

USA.gov is the U.S. government's official web portal to all federal, state and local government web resources and services.